createdAt,value
2022-08-15T00:00:00.105Z,8.38
2022-08-15T00:02:33.976Z,8.88
2022-08-15T00:05:17.529Z,9.15
2022-08-15T00:07:48.227Z,8.90
2022-08-15T00:11:01.733Z,8.20
2022-08-15T00:13:24.537Z,8.25
2022-08-15T00:15:58.169Z,9.05
2022-08-15T00:18:28.849Z,8.43
2022-08-15T00:20:58.797Z,8.70
2022-08-15T00:23:27.838Z,8.35
2022-08-15T00:26:28.741Z,8.07
2022-08-15T00:28:56.433Z,8.00
2022-08-15T00:31:40.874Z,8.70
2022-08-15T00:34:39.928Z,8.40
2022-08-15T00:39:37.585Z,8.40
2022-08-15T00:42:13.689Z,9.55
2022-08-15T00:45:01.130Z,8.73
2022-08-15T00:47:39.615Z,10.50
2022-08-15T00:50:32.802Z,9.10
2022-08-15T00:53:04.149Z,10.00
2022-08-15T00:55:38.014Z,8.73
2022-08-15T00:58:06.162Z,9.73
2022-08-15T01:00:46.570Z,8.88
2022-08-15T01:03:26.265Z,10.05
2022-08-15T01:05:58.788Z,9.57
2022-08-15T01:08:39.048Z,10.05
2022-08-15T01:11:33.907Z,9.48
2022-08-15T01:14:56.226Z,10.90
2022-08-15T01:16:55.423Z,11.13
2022-08-15T01:19:29.634Z,11.73
2022-08-15T01:22:54.306Z,12.30
2022-08-15T01:26:38.988Z,10.95
2022-08-15T01:28:31.989Z,12.30
2022-08-15T01:31:22.676Z,12.27
2022-08-15T01:33:58.812Z,13.35
2022-08-15T01:36:34.396Z,12.50
2022-08-15T01:39:45.164Z,12.45
2022-08-15T01:42:21.502Z,11.23
2022-08-15T01:44:59.581Z,12.52
2022-08-15T01:48:20.553Z,12.60
2022-08-15T01:50:59.508Z,12.77
2022-08-15T01:53:54.636Z,12.43
2022-08-15T01:56:45.593Z,12.57
2022-08-15T01:59:23.453Z,12.70
2022-08-15T02:02:42.356Z,14.05
2022-08-15T02:04:56.544Z,14.40
2022-08-15T02:07:32.560Z,15.25
2022-08-15T02:10:20.882Z,15.18
2022-08-15T02:13:03.278Z,14.10
2022-08-15T02:15:37.504Z,14.93
2022-08-15T02:18:05.302Z,15.07
2022-08-15T02:20:39.281Z,15.98
2022-08-15T02:23:17.361Z,15.07
2022-08-15T02:25:49.567Z,14.88
2022-08-15T02:28:34.938Z,14.00
2022-08-15T02:31:17.862Z,12.88
2022-08-15T02:33:58.414Z,12.40
2022-08-15T02:36:30.726Z,12.00
2022-08-15T02:39:05.839Z,11.48
2022-08-15T02:41:43.150Z,10.77
2022-08-15T02:44:19.231Z,10.52
2022-08-15T02:47:03.744Z,10.00
2022-08-15T02:49:48.194Z,9.90
2022-08-15T02:52:21.270Z,9.50
2022-08-15T02:54:58.872Z,9.77
2022-08-15T02:57:30.526Z,9.57
2022-08-15T02:59:58.114Z,9.57
2022-08-15T03:02:31.700Z,9.35
2022-08-15T03:05:03.689Z,9.07
2022-08-15T03:07:33.877Z,8.65
2022-08-15T03:10:04.556Z,8.45
2022-08-15T03:13:03.246Z,8.23
2022-08-15T03:15:57.778Z,8.85
2022-08-15T03:18:34.239Z,8.50
2022-08-15T03:21:11.164Z,8.07
2022-08-15T03:23:43.491Z,9.05
2022-08-15T03:26:25.795Z,8.00
2022-08-15T03:29:05.005Z,7.72
2022-08-15T03:31:41.840Z,6.95
2022-08-15T03:34:16.997Z,7.20
2022-08-15T03:36:52.939Z,7.07
2022-08-15T03:39:23.822Z,6.03
2022-08-15T03:41:54.130Z,6.18
2022-08-15T03:44:26.482Z,6.50
2022-08-15T03:46:56.854Z,6.60
2022-08-15T03:50:22.477Z,6.55
2022-08-15T03:52:12.278Z,6.07
2022-08-15T03:54:45.737Z,6.07
2022-08-15T03:57:17.001Z,6.18
2022-08-15T03:59:45.207Z,5.85
2022-08-15T04:02:30.252Z,5.90
2022-08-15T04:04:59.938Z,5.30
2022-08-15T04:07:40.994Z,5.78
2022-08-15T04:10:36.515Z,5.28
2022-08-15T04:13:08.640Z,5.40
2022-08-15T04:15:37.357Z,5.40
2022-08-15T04:18:44.282Z,4.80
2022-08-15T04:20:58.253Z,5.28
2022-08-15T04:23:33.003Z,4.90
2022-08-15T04:26:07.995Z,4.43
2022-08-15T04:28:54.077Z,5.60
2022-08-15T04:31:24.292Z,5.15
2022-08-15T04:34:44.523Z,5.25
2022-08-15T04:36:39.826Z,5.53
2022-08-15T04:39:07.891Z,5.50
2022-08-15T04:41:50.160Z,5.63
2022-08-15T04:44:20.085Z,5.35
2022-08-15T04:46:56.518Z,4.97
2022-08-15T04:49:24.165Z,5.47
2022-08-15T04:51:51.877Z,6.22
2022-08-15T04:54:20.417Z,6.20
2022-08-15T04:57:03.809Z,6.15
2022-08-15T04:59:35.084Z,6.25
2022-08-15T05:02:55.110Z,5.95
2022-08-15T05:05:13.099Z,6.18
2022-08-15T05:07:58.274Z,5.80
2022-08-15T05:10:33.108Z,6.57
2022-08-15T05:13:19.061Z,6.45
2022-08-15T05:15:53.690Z,6.00
2022-08-15T05:18:30.287Z,5.65
2022-08-15T05:20:59.723Z,5.93
2022-08-15T05:23:33.250Z,6.28
2022-08-15T05:26:05.796Z,6.93
2022-08-15T05:31:32.652Z,5.43
2022-08-15T05:34:04.951Z,5.15
2022-08-15T05:36:39.670Z,5.40
2022-08-15T05:39:35.118Z,4.75
2022-08-15T05:42:44.473Z,5.25
2022-08-15T05:45:45.114Z,5.45
2022-08-15T05:48:34.171Z,5.55
2022-08-15T05:51:42.714Z,5.80
2022-08-15T05:54:48.290Z,5.32
2022-08-15T05:57:21.135Z,5.80
2022-08-15T06:02:59.941Z,5.65
2022-08-15T06:05:45.541Z,5.10
2022-08-15T06:08:50.184Z,5.60
2022-08-15T06:11:28.896Z,6.13
2022-08-15T06:14:14.346Z,5.10
2022-08-15T06:16:59.710Z,5.45
2022-08-15T06:19:40.679Z,5.25
2022-08-15T06:22:30.815Z,5.07
2022-08-15T06:25:04.369Z,5.28
2022-08-15T06:27:58.674Z,5.78
2022-08-15T06:30:47.367Z,5.65
2022-08-15T06:33:57.277Z,4.57
2022-08-15T06:36:44.058Z,4.85
2022-08-15T06:39:36.070Z,3.80
2022-08-15T06:42:48.793Z,4.95
2022-08-15T06:45:37.385Z,5.50
2022-08-15T06:48:55.842Z,4.85
2022-08-15T06:51:15.451Z,5.38
2022-08-15T06:53:58.093Z,5.45
2022-08-15T06:57:19.545Z,5.32
2022-08-15T07:00:34.001Z,5.18
2022-08-15T07:03:49.132Z,5.22
2022-08-15T07:06:34.147Z,5.10
2022-08-15T07:09:41.302Z,6.13
2022-08-15T07:12:52.545Z,6.25
2022-08-15T07:16:01.471Z,5.95
2022-08-15T07:18:50.720Z,5.55
2022-08-15T07:21:53.359Z,6.18
2022-08-15T07:24:35.668Z,4.82
2022-08-15T07:27:07.111Z,6.40
2022-08-15T07:29:55.541Z,5.78
2022-08-15T07:32:33.911Z,6.10
2022-08-15T07:35:27.769Z,5.68
2022-08-15T07:38:25.312Z,5.70
2022-08-15T07:40:56.311Z,6.28
2022-08-15T07:43:36.329Z,5.00
2022-08-15T07:46:23.758Z,6.78
2022-08-15T07:49:18.058Z,6.53
2022-08-15T07:51:58.740Z,6.50
2022-08-15T07:54:51.146Z,6.93
2022-08-15T08:00:38.967Z,6.38
2022-08-15T08:03:34.079Z,6.65
2022-08-15T08:06:34.962Z,7.13
2022-08-15T08:09:31.901Z,7.32
2022-08-15T08:12:57.121Z,6.65
2022-08-15T08:15:44.999Z,6.72
2022-08-15T08:18:43.313Z,4.90
2022-08-15T08:21:19.236Z,6.47
2022-08-15T08:24:27.819Z,7.07
2022-08-15T08:27:20.401Z,6.95
2022-08-15T08:30:43.531Z,7.30
2022-08-15T08:33:44.688Z,8.00
2022-08-15T08:36:37.148Z,7.18
2022-08-15T08:39:33.054Z,6.82
2022-08-15T08:42:27.969Z,6.75
2022-08-15T08:45:09.467Z,7.35
2022-08-15T08:48:36.487Z,6.93
2022-08-15T08:51:30.411Z,8.38
2022-08-15T08:54:28.841Z,8.95
2022-08-15T08:57:08.661Z,7.90
2022-08-15T09:00:03.403Z,7.15
2022-08-15T09:03:07.641Z,8.07
2022-08-15T09:05:52.585Z,7.05
2022-08-15T09:11:06.061Z,7.28
2022-08-15T09:13:39.683Z,6.22
2022-08-15T09:16:12.975Z,5.75
2022-08-15T09:19:12.358Z,6.35
2022-08-15T09:21:39.873Z,6.97
2022-08-15T09:24:36.693Z,6.95
2022-08-15T09:27:16.531Z,7.03
2022-08-15T09:30:02.667Z,6.18
2022-08-15T09:33:23.573Z,6.88
2022-08-15T09:36:49.891Z,5.65
2022-08-15T09:39:44.629Z,6.78
2022-08-15T09:42:35.422Z,6.22
2022-08-15T09:45:45.306Z,7.38
2022-08-15T09:48:46.195Z,7.07
2022-08-15T09:52:35.399Z,7.55
2022-08-15T09:55:17.741Z,7.50
2022-08-15T09:57:53.511Z,7.03
2022-08-15T10:00:53.916Z,7.32
2022-08-15T10:03:44.370Z,6.45
2022-08-15T10:06:35.465Z,6.38
2022-08-15T10:09:17.722Z,6.90
2022-08-15T10:12:01.740Z,6.60
2022-08-15T10:15:03.972Z,6.45
2022-08-15T10:17:35.965Z,7.15
2022-08-15T10:20:19.594Z,6.50
2022-08-15T10:23:02.290Z,7.07
2022-08-15T10:25:42.540Z,7.28
2022-08-15T10:28:37.081Z,7.45
2022-08-15T10:31:03.850Z,7.53
2022-08-15T10:33:37.930Z,6.68
2022-08-15T10:36:20.914Z,7.47
2022-08-15T10:39:34.277Z,7.22
2022-08-15T10:42:47.404Z,7.40
2022-08-15T10:45:48.085Z,7.43
2022-08-15T10:48:55.004Z,7.40
2022-08-15T10:51:59.216Z,7.43
2022-08-15T10:55:14.438Z,6.93
2022-08-15T10:57:49.733Z,7.50
2022-08-15T11:00:51.478Z,6.75
2022-08-15T11:04:48.081Z,6.38
2022-08-15T11:06:26.727Z,7.35
2022-08-15T11:09:06.581Z,7.53
2022-08-15T11:11:43.181Z,7.18
2022-08-15T11:14:32.428Z,7.35
2022-08-15T11:17:02.138Z,6.68
2022-08-15T11:20:06.783Z,6.72
2022-08-15T11:22:47.789Z,5.57
2022-08-15T11:25:23.473Z,6.43
2022-08-15T11:28:37.244Z,6.70
2022-08-15T11:31:08.690Z,7.65
2022-08-15T11:33:42.753Z,7.63
2022-08-15T11:36:29.746Z,7.38
2022-08-15T11:39:16.214Z,6.80
2022-08-15T11:41:57.219Z,7.40
2022-08-15T11:44:37.945Z,6.05
2022-08-15T11:47:07.036Z,6.20
2022-08-15T11:49:46.424Z,6.07
2022-08-15T11:52:52.961Z,5.93
2022-08-15T11:55:31.788Z,6.13
2022-08-15T11:58:29.849Z,6.30
2022-08-15T12:01:01.231Z,6.55
2022-08-15T12:06:41.820Z,6.43
2022-08-15T12:09:42.353Z,6.05
2022-08-15T12:12:38.012Z,6.20
2022-08-15T12:13:10.365Z,5.72
2022-08-15T12:15:32.752Z,5.38
2022-08-15T12:18:32.317Z,5.63
2022-08-15T12:21:13.617Z,5.03
2022-08-15T12:23:53.750Z,5.80
2022-08-15T12:26:40.610Z,6.15
2022-08-15T12:29:13.411Z,5.95
2022-08-15T12:31:43.914Z,6.80
2022-08-15T12:34:32.301Z,5.93
2022-08-15T12:37:10.432Z,6.07
2022-08-15T12:39:41.454Z,6.40
2022-08-15T12:42:49.307Z,6.10
2022-08-15T12:45:15.554Z,6.25
2022-08-15T12:48:05.073Z,5.75
2022-08-15T12:50:31.710Z,5.82
2022-08-15T12:52:59.965Z,6.20
2022-08-15T12:55:26.921Z,5.75
2022-08-15T12:57:54.931Z,5.15
2022-08-15T13:00:35.229Z,5.32
2022-08-15T13:03:28.014Z,5.55
2022-08-15T13:06:32.278Z,5.55
2022-08-15T13:09:01.291Z,6.30
2022-08-15T13:11:28.182Z,5.68
2022-08-15T13:13:55.439Z,6.22
2022-08-15T13:17:06.019Z,6.20
2022-08-15T13:19:23.935Z,6.50
2022-08-15T13:22:32.834Z,5.20
2022-08-15T13:25:01.237Z,6.13
2022-08-15T13:27:31.035Z,6.00
2022-08-15T13:30:00.781Z,5.70
2022-08-15T13:34:56.185Z,5.63
2022-08-15T13:38:02.382Z,5.40
2022-08-15T13:40:29.040Z,6.00
2022-08-15T13:43:03.317Z,6.03
2022-08-15T13:45:57.600Z,5.45
2022-08-15T13:48:36.558Z,5.72
2022-08-15T13:51:20.578Z,6.00
2022-08-15T13:54:31.363Z,5.47
2022-08-15T13:56:54.775Z,6.07
2022-08-15T13:59:21.750Z,5.57
2022-08-15T14:01:53.241Z,6.07
2022-08-15T14:04:43.103Z,6.53
2022-08-15T14:07:50.762Z,6.68
2022-08-15T14:11:11.664Z,6.25
2022-08-15T14:13:12.855Z,5.90
2022-08-15T14:16:09.047Z,6.60
2022-08-15T14:18:51.129Z,5.85
2022-08-15T14:21:26.424Z,6.38
2022-08-15T14:24:00.279Z,5.95
2022-08-15T14:27:09.534Z,6.03
2022-08-15T14:35:17.218Z,5.68
2022-08-15T14:37:49.208Z,6.35
2022-08-15T14:40:27.023Z,6.85
2022-08-15T14:42:57.784Z,6.57
2022-08-15T14:46:31.135Z,6.68
2022-08-15T14:48:47.267Z,6.53
2022-08-15T14:52:23.296Z,6.78
2022-08-15T14:54:39.690Z,6.80
2022-08-15T14:57:09.907Z,6.40
2022-08-15T14:59:55.879Z,6.20
2022-08-15T15:02:29.129Z,6.10
2022-08-15T15:04:59.973Z,6.63
2022-08-15T15:07:54.626Z,6.90
2022-08-15T15:10:25.522Z,5.50
2022-08-15T15:13:02.182Z,5.75
2022-08-15T15:15:40.037Z,5.82
2022-08-15T15:18:39.049Z,5.85
2022-08-15T15:21:02.863Z,5.65
2022-08-15T15:23:29.954Z,5.97
2022-08-15T15:25:56.814Z,6.20
2022-08-15T15:28:41.242Z,5.53
2022-08-15T15:31:13.204Z,5.82
2022-08-15T15:33:43.511Z,5.65
2022-08-15T15:36:30.324Z,5.65
2022-08-15T15:39:13.139Z,4.07
2022-08-15T15:41:47.865Z,4.95
2022-08-15T15:44:25.104Z,5.25
2022-08-15T15:47:05.198Z,5.47
2022-08-15T15:49:45.161Z,5.78
2022-08-15T15:52:13.825Z,5.20
2022-08-15T15:54:52.103Z,5.90
2022-08-15T15:57:25.015Z,5.63
2022-08-15T16:00:23.739Z,5.43
2022-08-15T16:02:49.843Z,5.57
2022-08-15T16:06:59.048Z,5.25
2022-08-15T16:08:33.166Z,5.60
2022-08-15T16:11:41.990Z,5.55
2022-08-15T16:14:22.238Z,5.80
2022-08-15T16:17:35.657Z,5.97
2022-08-15T16:20:43.380Z,5.68
2022-08-15T16:23:18.527Z,5.45
2022-08-15T16:26:01.541Z,5.30
2022-08-15T16:28:40.222Z,5.70
2022-08-15T16:31:47.974Z,5.30
2022-08-15T16:34:58.172Z,5.80
2022-08-15T16:37:42.556Z,6.25
2022-08-15T16:40:28.279Z,5.78
2022-08-15T16:43:55.239Z,5.68
2022-08-15T16:46:43.274Z,6.22
2022-08-15T16:49:24.776Z,6.03
2022-08-15T16:52:13.685Z,6.60
2022-08-15T16:55:13.799Z,6.07
2022-08-15T16:58:37.233Z,6.28
2022-08-15T17:01:39.364Z,6.00
2022-08-15T17:05:00.027Z,5.47
2022-08-15T17:08:13.271Z,5.35
2022-08-15T17:11:04.574Z,5.43
2022-08-15T17:14:04.108Z,5.32
2022-08-15T17:17:09.489Z,5.22
2022-08-15T17:19:46.729Z,5.30
2022-08-15T17:22:36.543Z,5.88
2022-08-15T17:25:31.197Z,5.45
2022-08-15T17:28:44.666Z,5.60
2022-08-15T17:31:18.271Z,5.38
2022-08-15T17:33:56.610Z,5.55
2022-08-15T17:36:24.774Z,5.78
2022-08-15T17:39:18.304Z,5.72
2022-08-15T17:41:53.853Z,5.32
2022-08-15T17:44:50.738Z,5.13
2022-08-15T17:47:33.973Z,5.57
2022-08-15T17:50:48.442Z,5.63
2022-08-15T17:53:18.765Z,5.22
2022-08-15T17:55:59.185Z,5.15
2022-08-15T17:58:48.699Z,5.13
2022-08-15T18:01:16.396Z,5.03
2022-08-15T18:03:43.905Z,5.35
2022-08-15T18:06:11.783Z,5.07
2022-08-15T18:08:54.282Z,4.95
2022-08-15T18:11:35.155Z,4.90
2022-08-15T18:14:39.411Z,4.82
2022-08-15T18:17:21.401Z,4.65
2022-08-15T18:20:31.855Z,4.75
2022-08-15T18:23:26.139Z,4.10
2022-08-15T18:26:53.315Z,4.55
2022-08-15T18:29:22.184Z,4.90
2022-08-15T18:32:05.616Z,5.05
2022-08-15T18:34:54.219Z,4.93
2022-08-15T18:37:35.735Z,5.53
2022-08-15T18:40:52.571Z,5.38
2022-08-15T18:43:25.169Z,5.47
2022-08-15T18:45:52.824Z,5.47
2022-08-15T18:48:35.262Z,5.47
2022-08-15T18:51:17.728Z,4.90
2022-08-15T18:53:58.432Z,5.88
2022-08-15T18:56:32.949Z,5.50
2022-08-15T18:59:24.495Z,5.28
2022-08-15T19:02:01.482Z,5.82
2022-08-15T19:04:50.371Z,6.03
2022-08-15T19:07:28.054Z,5.75
2022-08-15T19:10:12.730Z,5.90
2022-08-15T19:13:09.108Z,5.55
2022-08-15T19:15:54.457Z,5.72
2022-08-15T19:18:38.425Z,5.93
2022-08-15T19:21:12.133Z,5.93
2022-08-15T19:24:00.256Z,5.85
2022-08-15T19:26:49.232Z,6.28
2022-08-15T19:29:44.856Z,6.47
2022-08-15T19:32:51.008Z,6.03
2022-08-15T19:35:50.920Z,5.97
2022-08-15T19:38:34.784Z,6.78
2022-08-15T19:41:09.418Z,6.57
2022-08-15T19:44:50.283Z,6.78
2022-08-15T19:47:46.081Z,6.25
2022-08-15T19:50:49.802Z,6.07
2022-08-15T19:53:43.065Z,6.30
2022-08-15T19:57:14.113Z,6.25
2022-08-15T20:03:13.189Z,7.18
2022-08-15T20:06:08.246Z,6.38
2022-08-15T20:09:02.987Z,7.07
2022-08-15T20:12:00.407Z,7.60
2022-08-15T20:14:52.009Z,7.10
2022-08-15T20:18:28.547Z,8.18
2022-08-15T20:21:22.521Z,7.88
2022-08-15T20:24:05.815Z,7.38
2022-08-15T20:26:56.925Z,8.05
2022-08-15T20:30:27.016Z,7.30
2022-08-15T20:33:08.386Z,8.57
2022-08-15T20:35:56.101Z,8.32
2022-08-15T20:38:52.701Z,9.18
2022-08-15T20:41:51.579Z,8.18
2022-08-15T20:44:40.221Z,8.48
2022-08-15T20:47:43.895Z,7.50
2022-08-15T20:50:21.833Z,7.20
2022-08-15T20:52:57.460Z,7.45
2022-08-15T20:55:53.115Z,6.57
2022-08-15T20:58:20.146Z,7.15
2022-08-15T21:01:18.245Z,7.43
2022-08-15T21:04:02.036Z,7.57
2022-08-15T21:06:49.673Z,7.72
2022-08-15T21:09:40.490Z,8.05
2022-08-15T21:12:55.678Z,7.90
2022-08-15T21:16:05.264Z,7.93
2022-08-15T21:18:59.420Z,7.78
2022-08-15T21:21:31.848Z,8.40
2022-08-15T21:24:02.114Z,8.15
2022-08-15T21:26:39.863Z,7.55
2022-08-15T21:29:17.886Z,7.53
2022-08-15T21:31:51.270Z,6.65
2022-08-15T21:34:40.667Z,7.40
2022-08-15T21:37:12.730Z,6.88
2022-08-15T21:40:05.265Z,7.00
2022-08-15T21:42:32.542Z,6.68
2022-08-15T21:45:02.668Z,7.60
2022-08-15T21:47:53.457Z,8.45
2022-08-15T21:50:41.884Z,8.27
2022-08-15T21:53:36.762Z,8.20
2022-08-15T21:56:25.662Z,8.20
2022-08-15T22:00:18.789Z,7.68
2022-08-15T22:03:05.717Z,6.93
2022-08-15T22:05:52.066Z,6.95
2022-08-15T22:08:39.521Z,7.30
2022-08-15T22:11:18.220Z,7.53
2022-08-15T22:13:52.142Z,7.40
2022-08-15T22:16:37.597Z,7.22
2022-08-15T22:19:07.124Z,7.43
2022-08-15T22:21:39.545Z,7.97
2022-08-15T22:24:11.253Z,7.13
2022-08-15T22:26:43.535Z,7.68
2022-08-15T22:29:49.112Z,7.78
2022-08-15T22:32:31.318Z,7.78
2022-08-15T22:35:09.220Z,7.95
2022-08-15T22:37:43.599Z,8.07
2022-08-15T22:40:18.697Z,8.55
2022-08-15T22:43:04.497Z,7.72
2022-08-15T22:45:49.427Z,7.93
2022-08-15T22:48:26.067Z,7.70
2022-08-15T22:51:01.296Z,8.27
2022-08-15T22:53:39.233Z,8.32
2022-08-15T22:56:46.309Z,8.20
2022-08-15T22:59:06.202Z,8.50
2022-08-15T23:01:44.427Z,8.55
2022-08-15T23:04:44.741Z,9.20
2022-08-15T23:07:22.176Z,8.30
2022-08-15T23:09:59.786Z,8.85
2022-08-15T23:12:44.017Z,8.43
2022-08-15T23:15:46.411Z,8.52
2022-08-15T23:18:31.777Z,9.32
2022-08-15T23:20:59.594Z,9.48
2022-08-15T23:23:36.747Z,10.60
2022-08-15T23:26:30.688Z,10.23
2022-08-15T23:29:01.449Z,10.57
2022-08-15T23:31:37.013Z,10.23
2022-08-15T23:34:09.372Z,10.75
2022-08-15T23:37:01.892Z,11.07
2022-08-15T23:39:49.221Z,11.00
2022-08-15T23:42:27.591Z,11.32
2022-08-15T23:44:58.685Z,11.50
2022-08-15T23:47:28.144Z,12.02
2022-08-15T23:49:58.190Z,12.02
2022-08-15T23:52:38.416Z,10.73
2022-08-15T23:55:14.463Z,12.93
2022-08-15T23:57:47.720Z,11.95
